createdAt,value
2022-10-15T00:03:32.795Z,0
2022-10-15T00:09:11.198Z,0
2022-10-15T00:14:34.013Z,0
2022-10-15T00:19:56.532Z,0
2022-10-15T00:25:21.897Z,0
2022-10-15T00:30:44.591Z,0
2022-10-15T00:41:32.613Z,3
2022-10-15T00:47:04.061Z,0
2022-10-15T00:52:27.360Z,0
2022-10-15T01:03:12.246Z,0
2022-10-15T01:08:34.655Z,0
2022-10-15T01:13:59.481Z,0
2022-10-15T01:19:21.923Z,0
2022-10-15T01:24:44.340Z,0
2022-10-15T01:30:06.834Z,4
2022-10-15T01:35:29.388Z,0
2022-10-15T01:40:51.652Z,0
2022-10-15T01:46:17.350Z,0
2022-10-15T01:51:43.346Z,0
2022-10-15T01:57:05.716Z,0
2022-10-15T02:02:31.301Z,0
2022-10-15T02:07:53.887Z,0
2022-10-15T02:13:17.133Z,0
2022-10-15T02:18:39.591Z,0
2022-10-15T02:24:01.974Z,0
2022-10-15T02:29:24.412Z,0
2022-10-15T02:34:46.702Z,0
2022-10-15T02:51:00.550Z,0
2022-10-15T02:56:23.409Z,0
2022-10-15T03:07:26.984Z,0
2022-10-15T03:12:49.684Z,0
2022-10-15T03:18:29.810Z,0
2022-10-15T03:23:53.134Z,4
2022-10-15T03:29:15.605Z,0
2022-10-15T03:34:38.360Z,0
2022-10-15T03:40:00.830Z,0
2022-10-15T15:54:29.279Z,86.1
2022-10-15T15:59:51.947Z,62.8
2022-10-15T16:05:14.652Z,44.9
2022-10-15T16:10:36.866Z,51.2
2022-10-15T16:16:02.556Z,70.4
2022-10-15T16:21:24.775Z,51.2
2022-10-15T16:26:49.940Z,33.1
2022-10-15T16:32:12.361Z,29.9
2022-10-15T16:37:34.778Z,23
2022-10-15T16:48:24.835Z,2
2022-10-15T16:53:47.357Z,0
2022-10-15T16:59:09.822Z,0
2022-10-15T17:04:32.371Z,0
2022-10-15T17:09:55.049Z,0
2022-10-15T17:15:17.433Z,0
2022-10-15T17:20:43.337Z,0
2022-10-15T17:36:53.507Z,0
2022-10-15T17:42:18.293Z,0
2022-10-15T17:47:40.866Z,0
2022-10-15T17:53:03.298Z,0
2022-10-15T17:58:25.849Z,0
2022-10-15T18:03:50.677Z,0
2022-10-15T18:09:15.547Z,0
2022-10-15T18:14:38.119Z,0
2022-10-15T18:20:00.633Z,0
2022-10-15T18:30:48.296Z,0
2022-10-15T18:36:10.887Z,2
2022-10-15T18:41:33.898Z,0
2022-10-15T18:47:17.566Z,0
2022-10-15T18:52:41.443Z,0
2022-10-15T18:58:04.207Z,0
2022-10-15T19:03:26.982Z,0
2022-10-15T19:08:49.856Z,0
2022-10-15T19:14:15.542Z,0
2022-10-15T19:30:26.460Z,0
2022-10-15T19:35:49.094Z,0
2022-10-15T19:41:14.135Z,0
2022-10-15T19:46:37.001Z,0
2022-10-15T19:51:59.244Z,0
2022-10-15T19:57:21.715Z,0
2022-10-15T20:02:47.975Z,0
2022-10-15T20:08:10.714Z,0
2022-10-15T20:13:33.046Z,0
2022-10-15T20:24:20.734Z,0
2022-10-15T20:29:43.194Z,0
2022-10-15T20:35:05.338Z,0
2022-10-15T20:40:30.342Z,0
2022-10-15T20:45:52.747Z,0
2022-10-15T20:51:15.253Z,0
2022-10-15T20:56:59.295Z,0
2022-10-15T21:02:21.796Z,0
2022-10-15T21:18:32.069Z,4
2022-10-15T21:24:00.617Z,0
2022-10-15T21:29:23.379Z,3
2022-10-15T21:34:48.182Z,0
2022-10-15T21:40:10.892Z,0
2022-10-15T21:45:33.346Z,0
2022-10-15T21:50:55.752Z,0
2022-10-15T21:56:21.084Z,0
2022-10-15T22:01:43.887Z,0
2022-10-15T22:07:06.221Z,0
2022-10-15T22:12:28.635Z,0
2022-10-15T22:18:11.522Z,0
2022-10-15T22:23:34.251Z,0
2022-10-15T22:28:57.144Z,3
2022-10-15T22:34:19.853Z,0
2022-10-15T22:39:51.833Z,4
2022-10-15T22:45:14.181Z,0
2022-10-15T22:50:39.748Z,0
2022-10-15T23:06:53.103Z,0
2022-10-15T23:12:18.976Z,0
2022-10-15T23:17:43.783Z,0
2022-10-15T23:23:06.164Z,0
2022-10-15T23:28:29.288Z,0
2022-10-15T23:33:51.713Z,0
2022-10-15T23:39:14.864Z,0
2022-10-15T23:50:01.797Z,0
2022-10-15T23:55:24.195Z,0
